Impacts TAF Board INFO
FOR SITUATIONAL AWARENESS. NOT TO BE USED FOR FLIGHT PLANNING PURPOSES.
IDs:

KSTL - St Louis/Lambert Int, MO, US

Issued at 0921 UTC 18 Dec 2017
Updated at 1058 UTC 18 Dec 2017
Potential Impact None Slight Moderate High
Time0951Z 18/11Z 18/12Z 18/13Z 18/14Z 18/15Z 18/16Z 18/17Z 18/18Z 18/19Z 18/20Z 18/21Z 18/22Z 18/23Z>>
Type OBS PRVL PRVL PRVL PRVL PRVL PRVL PRVL PRVL PRVL PRVL PRVL PRVL PRVL
VIS 10 6 5 5 5 5 5 5 >6 >6 >6 >6 >6 >6
CIG 20 20 15 15 15 15 15 15 25 25 25 25 25 --
Cover OVC OVC OVC OVC OVC OVC OVC OVC BKN BKN BKN BKN BKN SCT
FltCat MVFR MVFR MVFR MVFR MVFR MVFR MVFR MVFR MVFR MVFR MVFR MVFR MVFR VFR
WX -- -DZ -DZ BR -DZ BR -DZ BR -DZ BR -DZ BR -DZ BR -- -- -- -- -- --
WDir 260 250 240 240 240 240 240 240 240 240 240 240 240 220
WSpd 6 6 6 6 6 6 6 6 9 9 9 9 9 8
WGst -- -- -- -- -- -- -- -- -- -- -- -- -- --

Raw TAF
KSTL 180921Z 1809/1912 25006KT 6SM -DZ OVC020
  FM181200 24006KT 5SM -DZ BR OVC015
  FM181800 24009KT P6SM BKN025
  FM182300 22008KT P6SM SCT035


Raw METAR
KSTL 180951Z 26006KT 10SM FEW015 OVC020 08/06 A3006 RMK AO2 SLP180 T00830056
KSTL 180851Z 26005KT 10SM OVC022 08/06 A3006 RMK AO2 DZE51 SLP180 P0000 60000 T00830056 58001
KSTL 180751Z 25008KT 10SM -DZ OVC020 09/06 A3007 RMK AO2 DZB48 SLP184 P0000 T00890056

METAR Board
Radar Display
Forecast Discussion

FOR SITUATIONAL AWARENESS. NOT TO BE USED FOR FLIGHT PLANNING PURPOSES.